sensor_id;sensor_type;location;lat;lon;timestamp;pressure;altitude;pressure_sealevel;temperature;humidity
54808;BME280;40708;50.364;7.550;2023-08-12T00:00:03;101011.59;;;21.51;100.00
54808;BME280;40708;50.364;7.550;2023-08-12T00:02:34;101040.56;;;21.46;100.00
54808;BME280;40708;50.364;7.550;2023-08-12T00:04:59;101056.84;;;21.44;100.00
54808;BME280;40708;50.364;7.550;2023-08-12T00:07:25;101062.34;;;21.41;100.00
54808;BME280;40708;50.364;7.550;2023-08-12T00:09:50;101111.41;;;21.26;100.00
54808;BME280;40708;50.364;7.550;2023-08-12T00:12:15;101184.81;;;21.09;100.00
54808;BME280;40708;50.364;7.550;2023-08-12T00:14:40;101255.94;;;21.08;100.00
54808;BME280;40708;50.364;7.550;2023-08-12T00:17:06;101276.53;;;21.11;100.00
54808;BME280;40708;50.364;7.550;2023-08-12T00:19:31;101293.53;;;21.14;100.00
54808;BME280;40708;50.364;7.550;2023-08-12T00:21:56;101282.66;;;21.16;100.00
54808;BME280;40708;50.364;7.550;2023-08-12T00:24:22;101318.66;;;21.15;100.00
54808;BME280;40708;50.364;7.550;2023-08-12T00:26:47;101330.34;;;21.15;100.00
54808;BME280;40708;50.364;7.550;2023-08-12T00:29:12;101343.75;;;21.18;100.00
54808;BME280;40708;50.364;7.550;2023-08-12T00:31:38;101311.19;;;21.24;100.00
54808;BME280;40708;50.364;7.550;2023-08-12T00:34:03;101313.81;;;21.27;100.00
54808;BME280;40708;50.364;7.550;2023-08-12T00:36:28;101340.66;;;21.32;100.00
54808;BME280;40708;50.364;7.550;2023-08-12T00:38:53;101353.16;;;21.36;100.00
54808;BME280;40708;50.364;7.550;2023-08-12T00:41:19;101376.34;;;21.42;100.00
54808;BME280;40708;50.364;7.550;2023-08-12T00:43:44;101410.53;;;21.43;100.00
54808;BME280;40708;50.364;7.550;2023-08-12T00:46:09;101446.53;;;21.42;100.00
54808;BME280;40708;50.364;7.550;2023-08-12T00:48:35;101487.91;;;21.44;100.00
54808;BME280;40708;50.364;7.550;2023-08-12T00:51:01;101586.78;;;21.48;100.00
54808;BME280;40708;50.364;7.550;2023-08-12T00:53:26;101692.22;;;21.43;100.00
54808;BME280;40708;50.364;7.550;2023-08-12T00:55:53;101747.13;;;21.44;100.00
54808;BME280;40708;50.364;7.550;2023-08-12T00:58:19;101805.63;;;21.42;100.00
54808;BME280;40708;50.364;7.550;2023-08-12T01:00:45;101896.72;;;21.33;100.00
54808;BME280;40708;50.364;7.550;2023-08-12T01:03:11;101950.81;;;21.29;100.00
54808;BME280;40708;50.364;7.550;2023-08-12T01:05:37;101990.47;;;21.27;100.00
54808;BME280;40708;50.364;7.550;2023-08-12T01:08:02;101968.00;;;21.25;100.00
54808;BME280;40708;50.364;7.550;2023-08-12T01:10:33;101964.41;;;21.24;100.00
54808;BME280;40708;50.364;7.550;2023-08-12T01:13:21;102020.16;;;21.25;100.00
54808;BME280;40708;50.364;7.550;2023-08-12T01:15:53;102074.25;;;21.22;100.00
54808;BME280;40708;50.364;7.550;2023-08-12T01:18:19;102082.28;;;21.24;100.00
54808;BME280;40708;50.364;7.550;2023-08-12T01:20:46;102115.59;;;21.24;100.00
54808;BME280;40708;50.364;7.550;2023-08-12T01:23:15;102184.06;;;21.17;100.00
54808;BME280;40708;50.364;7.550;2023-08-12T01:25:42;102239.97;;;21.11;100.00
54808;BME280;40708;50.364;7.550;2023-08-12T01:28:07;102304.75;;;21.09;100.00
54808;BME280;40708;50.364;7.550;2023-08-12T01:30:37;102346.19;;;21.05;100.00
54808;BME280;40708;50.364;7.550;2023-08-12T01:33:10;102398.38;;;21.01;100.00
54808;BME280;40708;50.364;7.550;2023-08-12T01:35:43;102426.38;;;20.93;100.00
54808;BME280;40708;50.364;7.550;2023-08-12T01:38:11;102481.22;;;20.93;100.00
54808;BME280;40708;50.364;7.550;2023-08-12T01:40:38;102537.94;;;20.90;100.00
54808;BME280;40708;50.364;7.550;2023-08-12T01:43:04;102600.00;;;20.92;100.00
54808;BME280;40708;50.364;7.550;2023-08-12T01:45:32;102662.94;;;20.94;100.00
54808;BME280;40708;50.364;7.550;2023-08-12T01:47:58;102695.34;;;20.95;100.00
54808;BME280;40708;50.364;7.550;2023-08-12T01:50:23;102734.00;;;20.94;100.00
54808;BME280;40708;50.364;7.550;2023-08-12T01:52:49;102757.41;;;20.95;100.00
54808;BME280;40708;50.364;7.550;2023-08-12T01:55:14;102772.69;;;20.96;100.00
54808;BME280;40708;50.364;7.550;2023-08-12T01:57:40;102774.47;;;20.96;100.00
54808;BME280;40708;50.364;7.550;2023-08-12T02:00:06;102795.19;;;20.94;100.00
54808;BME280;40708;50.364;7.550;2023-08-12T02:02:31;102826.66;;;20.93;100.00
54808;BME280;40708;50.364;7.550;2023-08-12T02:04:56;102846.47;;;20.92;100.00
54808;BME280;40708;50.364;7.550;2023-08-12T02:07:22;102838.38;;;20.92;100.00
54808;BME280;40708;50.364;7.550;2023-08-12T02:09:47;102834.78;;;20.90;100.00
54808;BME280;40708;50.364;7.550;2023-08-12T02:12:12;102846.50;;;20.80;100.00
54808;BME280;40708;50.364;7.550;2023-08-12T02:14:37;102842.94;;;20.75;100.00
54808;BME280;40708;50.364;7.550;2023-08-12T02:17:03;102860.00;;;20.77;100.00
54808;BME280;40708;50.364;7.550;2023-08-12T02:19:33;102870.81;;;20.78;100.00
54808;BME280;40708;50.364;7.550;2023-08-12T02:21:59;102873.53;;;20.78;100.00
54808;BME280;40708;50.364;7.550;2023-08-12T02:24:25;102879.81;;;20.81;100.00
54808;BME280;40708;50.364;7.550;2023-08-12T02:26:50;102872.63;;;20.78;100.00
54808;BME280;40708;50.364;7.550;2023-08-12T02:29:16;102880.69;;;20.76;100.00
54808;BME280;40708;50.364;7.550;2023-08-12T02:31:41;102889.69;;;20.74;100.00
54808;BME280;40708;50.364;7.550;2023-08-12T02:34:06;102904.13;;;20.73;100.00
54808;BME280;40708;50.364;7.550;2023-08-12T02:36:32;102913.09;;;20.72;100.00
54808;BME280;40708;50.364;7.550;2023-08-12T02:38:57;102931.06;;;20.71;100.00
54808;BME280;40708;50.364;7.550;2023-08-12T02:41:23;102940.97;;;20.69;100.00
54808;BME280;40708;50.364;7.550;2023-08-12T02:43:48;102941.91;;;20.65;100.00
54808;BME280;40708;50.364;7.550;2023-08-12T02:46:13;102956.28;;;20.64;100.00
54808;BME280;40708;50.364;7.550;2023-08-12T02:48:40;102949.97;;;20.64;100.00
54808;BME280;40708;50.364;7.550;2023-08-12T02:51:05;102949.09;;;20.65;100.00
54808;BME280;40708;50.364;7.550;2023-08-12T02:53:31;102956.28;;;20.64;100.00
54808;BME280;40708;50.364;7.550;2023-08-12T02:55:56;102953.59;;;20.64;100.00
54808;BME280;40708;50.364;7.550;2023-08-12T02:58:21;102958.09;;;20.65;100.00
54808;BME280;40708;50.364;7.550;2023-08-12T03:00:47;102965.28;;;20.68;100.00
54808;BME280;40708;50.364;7.550;2023-08-12T03:03:12;102961.69;;;20.67;100.00
54808;BME280;40708;50.364;7.550;2023-08-12T03:05:37;102959.88;;;20.69;100.00
54808;BME280;40708;50.364;7.550;2023-08-12T03:08:03;102947.28;;;20.68;100.00
54808;BME280;40708;50.364;7.550;2023-08-12T03:10:30;102953.56;;;20.69;100.00
54808;BME280;40708;50.364;7.550;2023-08-12T03:12:55;102944.59;;;20.65;100.00
54808;BME280;40708;50.364;7.550;2023-08-12T03:15:21;102950.88;;;20.66;100.00
54808;BME280;40708;50.364;7.550;2023-08-12T03:17:46;102932.88;;;20.63;100.00
54808;BME280;40708;50.364;7.550;2023-08-12T03:20:11;102948.19;;;20.61;100.00
54808;BME280;40708;50.364;7.550;2023-08-12T03:22:37;102948.19;;;20.58;100.00
54808;BME280;40708;50.364;7.550;2023-08-12T03:25:04;102939.19;;;20.58;100.00
54808;BME280;40708;50.364;7.550;2023-08-12T03:27:29;102927.53;;;20.53;100.00
54808;BME280;40708;50.364;7.550;2023-08-12T03:29:55;102938.31;;;20.56;100.00
54808;BME280;40708;50.364;7.550;2023-08-12T03:32:20;102949.09;;;20.53;100.00
54808;BME280;40708;50.364;7.550;2023-08-12T03:34:46;102970.66;;;20.47;100.00
54808;BME280;40708;50.364;7.550;2023-08-12T03:37:11;102980.59;;;20.46;100.00
54808;BME280;40708;50.364;7.550;2023-08-12T03:39:36;103003.06;;;20.48;100.00
54808;BME280;40708;50.364;7.550;2023-08-12T03:42:01;102998.53;;;20.47;100.00
54808;BME280;40708;50.364;7.550;2023-08-12T03:44:27;103009.34;;;20.46;100.00
54808;BME280;40708;50.364;7.550;2023-08-12T03:46:52;103002.13;;;20.45;100.00
54808;BME280;40708;50.364;7.550;2023-08-12T03:49:17;103003.06;;;20.45;100.00
54808;BME280;40708;50.364;7.550;2023-08-12T03:51:43;103016.53;;;20.45;100.00
54808;BME280;40708;50.364;7.550;2023-08-12T03:54:08;103012.03;;;20.41;100.00
54808;BME280;40708;50.364;7.550;2023-08-12T03:56:33;103018.31;;;20.37;100.00
54808;BME280;40708;50.364;7.550;2023-08-12T03:58:59;103037.19;;;20.39;100.00
54808;BME280;40708;50.364;7.550;2023-08-12T04:01:24;103030.03;;;20.41;100.00
54808;BME280;40708;50.364;7.550;2023-08-12T04:03:49;103052.47;;;20.40;100.00
54808;BME280;40708;50.364;7.550;2023-08-12T04:06:15;103062.38;;;20.39;100.00
54808;BME280;40708;50.364;7.550;2023-08-12T04:08:40;103073.16;;;20.39;100.00
54808;BME280;40708;50.364;7.550;2023-08-12T04:11:05;103078.53;;;20.39;100.00
54808;BME280;40708;50.364;7.550;2023-08-12T04:13:31;103075.84;;;20.39;100.00
54808;BME280;40708;50.364;7.550;2023-08-12T04:15:56;103074.94;;;20.36;100.00
54808;BME280;40708;50.364;7.550;2023-08-12T04:18:21;103074.03;;;20.34;100.00
54808;BME280;40708;50.364;7.550;2023-08-12T04:20:50;103073.13;;;20.30;100.00
54808;BME280;40708;50.364;7.550;2023-08-12T04:23:16;103065.94;;;20.28;100.00
54808;BME280;40708;50.364;7.550;2023-08-12T04:25:47;103058.75;;;20.25;100.00
54808;BME280;40708;50.364;7.550;2023-08-12T04:28:13;103057.81;;;20.22;100.00
54808;BME280;40708;50.364;7.550;2023-08-12T04:30:47;103040.75;;;20.21;100.00
54808;BME280;40708;50.364;7.550;2023-08-12T04:33:13;103047.03;;;20.18;100.00
54808;BME280;40708;50.364;7.550;2023-08-12T04:35:40;103047.94;;;20.16;100.00
54808;BME280;40708;50.364;7.550;2023-08-12T04:38:05;103051.50;;;20.12;100.00
54808;BME280;40708;50.364;7.550;2023-08-12T04:40:31;103058.69;;;20.13;100.00
54808;BME280;40708;50.364;7.550;2023-08-12T04:42:58;103044.31;;;20.09;100.00
54808;BME280;40708;50.364;7.550;2023-08-12T04:45:24;103051.47;;;20.09;100.00
54808;BME280;40708;50.364;7.550;2023-08-12T04:47:49;103047.00;;;20.09;100.00
54808;BME280;40708;50.364;7.550;2023-08-12T04:50:14;103058.66;;;20.08;100.00
54808;BME280;40708;50.364;7.550;2023-08-12T04:52:40;103069.47;;;20.10;100.00
54808;BME280;40708;50.364;7.550;2023-08-12T04:55:05;103077.56;;;20.14;100.00
54808;BME280;40708;50.364;7.550;2023-08-12T04:57:30;103072.16;;;20.14;100.00
54808;BME280;40708;50.364;7.550;2023-08-12T04:59:56;103073.97;;;20.12;100.00
54808;BME280;40708;50.364;7.550;2023-08-12T05:02:21;103064.06;;;20.11;100.00
54808;BME280;40708;50.364;7.550;2023-08-12T05:04:50;103075.78;;;20.18;100.00
54808;BME280;40708;50.364;7.550;2023-08-12T05:07:16;103068.59;;;20.23;100.00
54808;BME280;40708;50.364;7.550;2023-08-12T05:09:42;103069.53;;;20.36;100.00
54808;BME280;40708;50.364;7.550;2023-08-12T05:12:11;103085.78;;;20.67;100.00
54808;BME280;40708;50.364;7.550;2023-08-12T05:14:37;103108.28;;;21.13;100.00
54808;BME280;40708;50.364;7.550;2023-08-12T05:17:02;103061.47;;;21.13;100.00
54808;BME280;40708;50.364;7.550;2023-08-12T05:19:27;103027.19;;;21.39;100.00
54808;BME280;40708;50.364;7.550;2023-08-12T05:21:53;102975.75;;;21.71;100.00
54808;BME280;40708;50.364;7.550;2023-08-12T05:24:18;102915.09;;;22.10;100.00
54808;BME280;40708;50.364;7.550;2023-08-12T05:26:43;102825.59;;;22.38;100.00
54808;BME280;40708;50.364;7.550;2023-08-12T05:29:08;102682.88;;;22.57;100.00
54808;BME280;40708;50.364;7.550;2023-08-12T05:31:34;102523.25;;;23.10;100.00
54808;BME280;40708;50.364;7.550;2023-08-12T05:33:59;102327.97;;;23.65;100.00
54808;BME280;40708;50.364;7.550;2023-08-12T05:36:25;102080.44;;;24.28;100.00
54808;BME280;40708;50.364;7.550;2023-08-12T05:38:50;101739.28;;;24.61;100.00
54808;BME280;40708;50.364;7.550;2023-08-12T05:41:16;101462.44;;;25.06;100.00
54808;BME280;40708;50.364;7.550;2023-08-12T05:43:41;101315.38;;;25.54;100.00
54808;BME280;40708;50.364;7.550;2023-08-12T05:46:07;101151.03;;;25.25;100.00
54808;BME280;40708;50.364;7.550;2023-08-12T05:48:32;101121.34;;;24.84;100.00
54808;BME280;40708;50.364;7.550;2023-08-12T05:50:57;101133.03;;;24.87;100.00
54808;BME280;40708;50.364;7.550;2023-08-12T05:53:23;101122.03;;;24.51;100.00
54808;BME280;40708;50.364;7.550;2023-08-12T05:55:48;101180.22;;;24.62;100.00
54808;BME280;40708;50.364;7.550;2023-08-12T05:58:13;101149.16;;;25.08;100.00
54808;BME280;40708;50.364;7.550;2023-08-12T06:00:39;101091.00;;;25.12;100.00
54808;BME280;40708;50.364;7.550;2023-08-12T06:03:04;101067.78;;;24.88;100.00
54808;BME280;40708;50.364;7.550;2023-08-12T06:05:29;101061.91;;;24.97;100.00
54808;BME280;40708;50.364;7.550;2023-08-12T06:07:54;101067.81;;;24.49;100.00
54808;BME280;40708;50.364;7.550;2023-08-12T06:10:20;101092.75;;;24.57;100.00
54808;BME280;40708;50.364;7.550;2023-08-12T06:12:45;101135.72;;;24.27;100.00
54808;BME280;40708;50.364;7.550;2023-08-12T06:15:10;101165.78;;;24.23;100.00
54808;BME280;40708;50.364;7.550;2023-08-12T06:17:36;101167.59;;;24.02;100.00
54808;BME280;40708;50.364;7.550;2023-08-12T06:20:01;101256.06;;;24.25;100.00
54808;BME280;40708;50.364;7.550;2023-08-12T06:22:27;101282.28;;;24.24;100.00
54808;BME280;40708;50.364;7.550;2023-08-12T06:24:52;101261.19;;;23.89;100.00
54808;BME280;40708;50.364;7.550;2023-08-12T06:27:17;101328.16;;;23.41;100.00
54808;BME280;40708;50.364;7.550;2023-08-12T06:29:44;101421.78;;;22.98;100.00
54808;BME280;40708;50.364;7.550;2023-08-12T06:32:10;101536.16;;;22.77;100.00
54808;BME280;40708;50.364;7.550;2023-08-12T06:34:38;101597.19;;;22.57;100.00
54808;BME280;40708;50.364;7.550;2023-08-12T06:37:03;101666.72;;;22.53;100.00
54808;BME280;40708;50.364;7.550;2023-08-12T06:39:28;101744.69;;;22.37;100.00
54808;BME280;40708;50.364;7.550;2023-08-12T06:41:53;101785.25;;;22.37;100.00
54808;BME280;40708;50.364;7.550;2023-08-12T06:44:20;101806.06;;;22.35;100.00
54808;BME280;40708;50.364;7.550;2023-08-12T06:46:46;101777.88;;;22.10;100.00
54808;BME280;40708;50.364;7.550;2023-08-12T06:49:11;101752.94;;;21.99;100.00
54808;BME280;40708;50.364;7.550;2023-08-12T06:51:37;101771.22;;;21.89;100.00
54808;BME280;40708;50.364;7.550;2023-08-12T06:54:02;101800.88;;;21.91;100.00
54808;BME280;40708;50.364;7.550;2023-08-12T06:56:27;101851.44;;;21.87;100.00
54808;BME280;40708;50.364;7.550;2023-08-12T06:58:53;101885.63;;;21.88;100.00
54808;BME280;40708;50.364;7.550;2023-08-12T07:01:18;101899.19;;;21.87;100.00
54808;BME280;40708;50.364;7.550;2023-08-12T07:03:43;101946.13;;;21.80;100.00
54808;BME280;40708;50.364;7.550;2023-08-12T07:06:09;101953.44;;;21.76;100.00
54808;BME280;40708;50.364;7.550;2023-08-12T07:08:34;101968.19;;;21.59;100.00
54808;BME280;40708;50.364;7.550;2023-08-12T07:10:59;101993.69;;;21.46;100.00
54808;BME280;40708;50.364;7.550;2023-08-12T07:13:25;102029.97;;;21.31;100.00
54808;BME280;40708;50.364;7.550;2023-08-12T07:15:50;102106.59;;;21.24;100.00
54808;BME280;40708;50.364;7.550;2023-08-12T07:18:16;102137.28;;;21.18;100.00
54808;BME280;40708;50.364;7.550;2023-08-12T07:20:41;102164.28;;;21.18;100.00
54808;BME280;40708;50.364;7.550;2023-08-12T07:23:06;102200.16;;;21.25;100.00
54808;BME280;40708;50.364;7.550;2023-08-12T07:25:32;102214.56;;;21.24;100.00
54808;BME280;40708;50.364;7.550;2023-08-12T07:27:58;102265.78;;;21.30;100.00
54808;BME280;40708;50.364;7.550;2023-08-12T07:30:23;102291.69;;;21.42;100.00
54808;BME280;40708;50.364;7.550;2023-08-12T07:32:48;102295.97;;;21.58;100.00
54808;BME280;40708;50.364;7.550;2023-08-12T07:35:14;102295.78;;;21.67;100.00
54808;BME280;40708;50.364;7.550;2023-08-12T07:37:39;102297.13;;;21.98;100.00
54808;BME280;40708;50.364;7.550;2023-08-12T07:40:05;102218.69;;;22.00;100.00
54808;BME280;40708;50.364;7.550;2023-08-12T07:42:30;102157.88;;;22.22;100.00
54808;BME280;40708;50.364;7.550;2023-08-12T07:44:56;102111.31;;;22.49;100.00
54808;BME280;40708;50.364;7.550;2023-08-12T07:47:21;102059.19;;;22.81;100.00
54808;BME280;40708;50.364;7.550;2023-08-12T07:49:46;101980.34;;;22.94;100.00
54808;BME280;40708;50.364;7.550;2023-08-12T07:52:12;101887.50;;;23.23;100.00
54808;BME280;40708;50.364;7.550;2023-08-12T07:54:37;101807.09;;;23.56;100.00
54808;BME280;40708;50.364;7.550;2023-08-12T07:57:03;101679.97;;;23.50;100.00
54808;BME280;40708;50.364;7.550;2023-08-12T07:59:28;101560.28;;;23.37;100.00
54808;BME280;40708;50.364;7.550;2023-08-12T08:01:54;101478.78;;;23.19;100.00
54808;BME280;40708;50.364;7.550;2023-08-12T08:04:19;101423.66;;;22.96;100.00
54808;BME280;40708;50.364;7.550;2023-08-12T08:06:44;101443.84;;;22.59;100.00
54808;BME280;40708;50.364;7.550;2023-08-12T08:09:10;101523.09;;;22.64;100.00
54808;BME280;40708;50.364;7.550;2023-08-12T08:11:36;101558.88;;;22.72;100.00
54808;BME280;40708;50.364;7.550;2023-08-12T08:14:01;101573.72;;;22.57;100.00
54808;BME280;40708;50.364;7.550;2023-08-12T08:16:27;101610.88;;;22.50;100.00
54808;BME280;40708;50.364;7.550;2023-08-12T08:18:52;101664.25;;;22.45;100.00
54808;BME280;40708;50.364;7.550;2023-08-12T08:21:18;101719.06;;;22.50;100.00
54808;BME280;40708;50.364;7.550;2023-08-12T08:23:43;101781.88;;;22.62;100.00
54808;BME280;40708;50.364;7.550;2023-08-12T08:26:09;101813.91;;;22.78;100.00
54808;BME280;40708;50.364;7.550;2023-08-12T08:28:34;101773.28;;;22.80;100.00
54808;BME280;40708;50.364;7.550;2023-08-12T08:31:00;101750.75;;;22.79;100.00
54808;BME280;40708;50.364;7.550;2023-08-12T08:33:25;101760.50;;;22.85;100.00
54808;BME280;40708;50.364;7.550;2023-08-12T08:35:51;101753.31;;;22.84;100.00
54808;BME280;40708;50.364;7.550;2023-08-12T08:38:17;101735.91;;;22.92;100.00
54808;BME280;40708;50.364;7.550;2023-08-12T08:40:42;101714.03;;;23.00;100.00
54808;BME280;40708;50.364;7.550;2023-08-12T08:43:08;101715.38;;;23.15;100.00
54808;BME280;40708;50.364;7.550;2023-08-12T08:45:34;101685.97;;;23.32;100.00
54808;BME280;40708;50.364;7.550;2023-08-12T08:48:02;101648.25;;;23.53;100.00
54808;BME280;40708;50.364;7.550;2023-08-12T08:50:30;101598.53;;;23.54;100.00
54808;BME280;40708;50.364;7.550;2023-08-12T08:52:56;101569.34;;;23.87;100.00
54808;BME280;40708;50.364;7.550;2023-08-12T08:55:22;101458.00;;;23.93;100.00
54808;BME280;40708;50.364;7.550;2023-08-12T08:57:48;101413.09;;;24.53;100.00
54808;BME280;40708;50.364;7.550;2023-08-12T09:00:17;101308.47;;;24.67;100.00
54808;BME280;40708;50.364;7.550;2023-08-12T09:02:46;101198.56;;;25.16;100.00
54808;BME280;40708;50.364;7.550;2023-08-12T09:05:14;101144.22;;;25.35;100.00
54808;BME280;40708;50.364;7.550;2023-08-12T09:07:40;101087.06;;;25.36;100.00
54808;BME280;40708;50.364;7.550;2023-08-12T09:10:06;101078.34;;;25.66;100.00
54808;BME280;40708;50.364;7.550;2023-08-12T09:12:32;101013.94;;;25.51;100.00
54808;BME280;40708;50.364;7.550;2023-08-12T09:14:58;100984.75;;;25.37;100.00
54808;BME280;40708;50.364;7.550;2023-08-12T09:17:23;100962.19;;;25.86;100.00
54808;BME280;40708;50.364;7.550;2023-08-12T09:19:49;100932.75;;;25.94;100.00
54808;BME280;40708;50.364;7.550;2023-08-12T09:22:15;100921.41;;;26.19;100.00
54808;BME280;40708;50.364;7.550;2023-08-12T09:24:42;100888.59;;;26.22;100.00
54808;BME280;40708;50.364;7.550;2023-08-12T09:27:08;100849.91;;;26.33;100.00
54808;BME280;40708;50.364;7.550;2023-08-12T09:29:34;100818.56;;;26.71;100.00
54808;BME280;40708;50.364;7.550;2023-08-12T09:32:12;100774.69;;;26.32;100.00
54808;BME280;40708;50.364;7.550;2023-08-12T09:34:50;100798.72;;;25.77;100.00
54808;BME280;40708;50.364;7.550;2023-08-12T09:37:16;100782.13;;;25.33;100.00
54808;BME280;40708;50.364;7.550;2023-08-12T09:39:42;100793.09;;;25.31;100.00
54808;BME280;40708;50.364;7.550;2023-08-12T09:42:09;100800.13;;;25.35;100.00
54808;BME280;40708;50.364;7.550;2023-08-12T09:44:35;100823.06;;;25.30;100.00
54808;BME280;40708;50.364;7.550;2023-08-12T09:47:01;100809.41;;;25.31;100.00
54808;BME280;40708;50.364;7.550;2023-08-12T09:49:26;100796.53;;;25.35;100.00
54808;BME280;40708;50.364;7.550;2023-08-12T09:51:53;100797.34;;;25.20;100.00
54808;BME280;40708;50.364;7.550;2023-08-12T09:54:18;100798.97;;;25.07;100.00
54808;BME280;40708;50.364;7.550;2023-08-12T09:56:47;100814.47;;;25.22;100.00
54808;BME280;40708;50.364;7.550;2023-08-12T09:59:16;100813.69;;;25.03;100.00
54808;BME280;40708;50.364;7.550;2023-08-12T10:01:44;100815.47;;;24.87;100.00
54808;BME280;40708;50.364;7.550;2023-08-12T10:04:11;100816.72;;;24.79;100.00
54808;BME280;40708;50.364;7.550;2023-08-12T10:06:40;100810.09;;;24.85;100.00
54808;BME280;40708;50.364;7.550;2023-08-12T10:09:06;100797.94;;;24.75;100.00
54808;BME280;40708;50.364;7.550;2023-08-12T10:11:34;100815.91;;;24.77;100.00
54808;BME280;40708;50.364;7.550;2023-08-12T10:14:00;100821.84;;;25.03;100.00
54808;BME280;40708;50.364;7.550;2023-08-12T10:16:29;100797.72;;;25.14;100.00
54808;BME280;40708;50.364;7.550;2023-08-12T10:18:55;100819.22;;;25.17;100.00
54808;BME280;40708;50.364;7.550;2023-08-12T10:21:22;100793.53;;;25.57;100.00
54808;BME280;40708;50.364;7.550;2023-08-12T10:23:50;100750.75;;;25.91;100.00
54808;BME280;40708;50.364;7.550;2023-08-12T10:26:16;100689.03;;;25.78;100.00
54808;BME280;40708;50.364;7.550;2023-08-12T10:28:42;100699.84;;;26.09;100.00
54808;BME280;40708;50.364;7.550;2023-08-12T10:31:07;100660.13;;;26.07;100.00
54808;BME280;40708;50.364;7.550;2023-08-12T10:33:37;100688.06;;;25.94;100.00
54808;BME280;40708;50.364;7.550;2023-08-12T10:36:03;100678.81;;;26.13;100.00
54808;BME280;40708;50.364;7.550;2023-08-12T10:38:31;100692.66;;;26.53;100.00
54808;BME280;40708;50.364;7.550;2023-08-12T10:41:16;100649.91;;;26.70;100.00
54808;BME280;40708;50.364;7.550;2023-08-12T10:44:09;100620.81;;;27.12;100.00
54808;BME280;40708;50.364;7.550;2023-08-12T10:46:36;100588.06;;;27.55;100.00
54808;BME280;40708;50.364;7.550;2023-08-12T10:49:09;100579.31;;;27.76;100.00
54808;BME280;40708;50.364;7.550;2023-08-12T10:51:48;100582.06;;;27.36;100.00
54808;BME280;40708;50.364;7.550;2023-08-12T11:02:21;100504.47;;;27.68;100.00
54808;BME280;40708;50.364;7.550;2023-08-12T11:05:00;100504.53;;;27.41;100.00
54808;BME280;40708;50.364;7.550;2023-08-12T11:07:42;100501.81;;;27.41;100.00
54808;BME280;40708;50.364;7.550;2023-08-12T11:10:17;100512.16;;;27.22;100.00
54808;BME280;40708;50.364;7.550;2023-08-12T11:13:02;100521.41;;;26.93;100.00
54808;BME280;40708;50.364;7.550;2023-08-12T11:15:42;100540.94;;;26.43;100.00
54808;BME280;40708;50.364;7.550;2023-08-12T11:18:14;100550.84;;;26.16;100.00
54808;BME280;40708;50.364;7.550;2023-08-12T11:20:40;100537.25;;;26.16;100.00
54808;BME280;40708;50.364;7.550;2023-08-12T11:23:07;100519.28;;;26.13;100.00
54808;BME280;40708;50.364;7.550;2023-08-12T11:25:34;100515.50;;;25.86;100.00
54808;BME280;40708;50.364;7.550;2023-08-12T11:28:00;100535.47;;;26.15;100.00
54808;BME280;40708;50.364;7.550;2023-08-12T11:30:26;100534.34;;;26.47;100.00
54808;BME280;40708;50.364;7.550;2023-08-12T11:32:54;100538.84;;;25.90;100.00
54808;BME280;40708;50.364;7.550;2023-08-12T11:35:22;100549.97;;;26.15;100.00
54808;BME280;40708;50.364;7.550;2023-08-12T11:37:49;100536.94;;;26.20;100.00
54808;BME280;40708;50.364;7.550;2023-08-12T11:40:16;100514.00;;;26.10;100.00
54808;BME280;40708;50.364;7.550;2023-08-12T11:42:43;100543.75;;;25.83;100.00
54808;BME280;40708;50.364;7.550;2023-08-12T11:45:09;100544.91;;;25.79;100.00
54808;BME280;40708;50.364;7.550;2023-08-12T11:47:40;100537.19;;;26.01;100.00
54808;BME280;40708;50.364;7.550;2023-08-12T11:50:07;100547.28;;;25.99;100.00
54808;BME280;40708;50.364;7.550;2023-08-12T11:52:34;100522.41;;;25.91;100.00
54808;BME280;40708;50.364;7.550;2023-08-12T11:55:00;100520.81;;;26.31;100.00
54808;BME280;40708;50.364;7.550;2023-08-12T11:57:26;100521.25;;;26.25;100.00
54808;BME280;40708;50.364;7.550;2023-08-12T11:59:57;100509.25;;;26.42;100.00
54808;BME280;40708;50.364;7.550;2023-08-12T12:02:23;100527.47;;;26.41;100.00
54808;BME280;40708;50.364;7.550;2023-08-12T12:04:51;100533.13;;;26.09;100.00
54808;BME280;40708;50.364;7.550;2023-08-12T12:07:25;100513.38;;;25.91;100.00
54808;BME280;40708;50.364;7.550;2023-08-12T12:09:52;100520.97;;;26.00;100.00
54808;BME280;40708;50.364;7.550;2023-08-12T12:12:21;100516.66;;;26.82;100.00
54808;BME280;40708;50.364;7.550;2023-08-12T12:14:47;100464.41;;;27.16;100.00
54808;BME280;40708;50.364;7.550;2023-08-12T12:17:14;100442.66;;;27.29;100.00
54808;BME280;40708;50.364;7.550;2023-08-12T12:19:40;100438.25;;;27.41;100.00
54808;BME280;40708;50.364;7.550;2023-08-12T12:22:06;100424.97;;;27.49;100.00
54808;BME280;40708;50.364;7.550;2023-08-12T12:24:43;100415.72;;;27.51;100.00
54808;BME280;40708;50.364;7.550;2023-08-12T12:27:09;100419.56;;;27.74;100.00
54808;BME280;40708;50.364;7.550;2023-08-12T12:29:34;100418.66;;;28.37;100.00
54808;BME280;40708;50.364;7.550;2023-08-12T12:32:00;100413.97;;;28.01;100.00
54808;BME280;40708;50.364;7.550;2023-08-12T12:34:25;100409.63;;;28.23;100.00
54808;BME280;40708;50.364;7.550;2023-08-12T12:36:50;100408.84;;;28.34;100.00
54808;BME280;40708;50.364;7.550;2023-08-12T12:39:15;100408.34;;;28.53;100.00
54808;BME280;40708;50.364;7.550;2023-08-12T12:41:41;100397.72;;;28.61;100.00
54808;BME280;40708;50.364;7.550;2023-08-12T12:44:06;100404.69;;;28.77;100.00